sensor_id;sensor_type;location;lat;lon;timestamp;temperature;humidity
47168;DHT22;32931;47.778;17.806;2022-12-24T00:00:31;7.50;99.90
47168;DHT22;32931;47.778;17.806;2022-12-24T00:02:58;7.60;99.90
47168;DHT22;32931;47.778;17.806;2022-12-24T00:05:24;7.50;99.90
47168;DHT22;32931;47.778;17.806;2022-12-24T00:07:50;7.60;99.90
47168;DHT22;32931;47.778;17.806;2022-12-24T00:10:17;7.60;99.90
47168;DHT22;32931;47.778;17.806;2022-12-24T00:12:43;7.60;99.90
47168;DHT22;32931;47.778;17.806;2022-12-24T00:15:09;7.60;99.90
47168;DHT22;32931;47.778;17.806;2022-12-24T00:17:36;7.50;99.90
47168;DHT22;32931;47.778;17.806;2022-12-24T00:20:03;7.60;99.90
47168;DHT22;32931;47.778;17.806;2022-12-24T00:22:29;7.50;99.90
47168;DHT22;32931;47.778;17.806;2022-12-24T00:24:55;7.60;99.90
47168;DHT22;32931;47.778;17.806;2022-12-24T00:27:22;7.60;99.90
47168;DHT22;32931;47.778;17.806;2022-12-24T00:29:48;7.60;99.90
47168;DHT22;32931;47.778;17.806;2022-12-24T00:32:14;7.70;99.90
47168;DHT22;32931;47.778;17.806;2022-12-24T00:34:40;7.70;99.90
47168;DHT22;32931;47.778;17.806;2022-12-24T00:37:06;7.80;99.90
47168;DHT22;32931;47.778;17.806;2022-12-24T00:39:33;7.80;99.90
47168;DHT22;32931;47.778;17.806;2022-12-24T00:41:59;7.80;99.90
47168;DHT22;32931;47.778;17.806;2022-12-24T00:44:25;7.90;99.90
47168;DHT22;32931;47.778;17.806;2022-12-24T00:46:51;8.00;99.90
47168;DHT22;32931;47.778;17.806;2022-12-24T00:49:17;8.00;99.90
47168;DHT22;32931;47.778;17.806;2022-12-24T00:51:43;8.10;99.90
47168;DHT22;32931;47.778;17.806;2022-12-24T00:54:15;8.10;99.90
47168;DHT22;32931;47.778;17.806;2022-12-24T00:56:41;8.20;99.90
47168;DHT22;32931;47.778;17.806;2022-12-24T00:59:07;8.30;99.90
47168;DHT22;32931;47.778;17.806;2022-12-24T01:01:33;8.30;99.90
47168;DHT22;32931;47.778;17.806;2022-12-24T01:04:01;8.40;99.90
47168;DHT22;32931;47.778;17.806;2022-12-24T01:06:46;8.40;99.90
47168;DHT22;32931;47.778;17.806;2022-12-24T01:09:12;8.40;99.90
47168;DHT22;32931;47.778;17.806;2022-12-24T01:11:39;8.50;99.90
47168;DHT22;32931;47.778;17.806;2022-12-24T01:14:05;8.50;99.90
47168;DHT22;32931;47.778;17.806;2022-12-24T01:16:31;8.50;99.90
47168;DHT22;32931;47.778;17.806;2022-12-24T01:18:57;8.50;99.90
47168;DHT22;32931;47.778;17.806;2022-12-24T01:21:23;8.50;99.90
47168;DHT22;32931;47.778;17.806;2022-12-24T01:23:49;8.50;99.90
47168;DHT22;32931;47.778;17.806;2022-12-24T01:26:17;8.60;99.90
47168;DHT22;32931;47.778;17.806;2022-12-24T01:28:43;8.60;99.90
47168;DHT22;32931;47.778;17.806;2022-12-24T01:31:14;8.60;99.90
47168;DHT22;32931;47.778;17.806;2022-12-24T01:33:42;8.60;99.90
47168;DHT22;32931;47.778;17.806;2022-12-24T01:36:09;8.70;99.90
47168;DHT22;32931;47.778;17.806;2022-12-24T01:38:36;8.70;99.90
47168;DHT22;32931;47.778;17.806;2022-12-24T01:41:02;8.80;99.90
47168;DHT22;32931;47.778;17.806;2022-12-24T01:43:47;8.80;99.90
47168;DHT22;32931;47.778;17.806;2022-12-24T01:48:58;8.80;99.90
47168;DHT22;32931;47.778;17.806;2022-12-24T01:51:26;8.90;99.90
47168;DHT22;32931;47.778;17.806;2022-12-24T01:54:06;8.90;99.90
47168;DHT22;32931;47.778;17.806;2022-12-24T01:56:38;8.80;99.90
47168;DHT22;32931;47.778;17.806;2022-12-24T01:59:07;8.80;99.90
47168;DHT22;32931;47.778;17.806;2022-12-24T02:01:35;8.80;99.90
47168;DHT22;32931;47.778;17.806;2022-12-24T02:04:08;8.80;99.90
47168;DHT22;32931;47.778;17.806;2022-12-24T02:06:37;8.80;99.90
47168;DHT22;32931;47.778;17.806;2022-12-24T02:09:03;8.80;99.90
47168;DHT22;32931;47.778;17.806;2022-12-24T02:11:29;8.80;99.90
47168;DHT22;32931;47.778;17.806;2022-12-24T02:14:00;8.80;99.90
47168;DHT22;32931;47.778;17.806;2022-12-24T02:19:31;8.90;99.90
47168;DHT22;32931;47.778;17.806;2022-12-24T02:22:16;8.90;99.90
47168;DHT22;32931;47.778;17.806;2022-12-24T02:30:26;8.90;99.90
47168;DHT22;32931;47.778;17.806;2022-12-24T02:35:43;9.00;99.90
47168;DHT22;32931;47.778;17.806;2022-12-24T02:41:24;9.00;99.90
47168;DHT22;32931;47.778;17.806;2022-12-24T02:43:53;8.90;99.90
47168;DHT22;32931;47.778;17.806;2022-12-24T02:46:24;8.90;99.90
47168;DHT22;32931;47.778;17.806;2022-12-24T02:48:51;8.80;99.90
47168;DHT22;32931;47.778;17.806;2022-12-24T02:51:22;8.80;99.90
47168;DHT22;32931;47.778;17.806;2022-12-24T02:53:49;8.80;99.90
47168;DHT22;32931;47.778;17.806;2022-12-24T03:13:30;8.60;99.90
47168;DHT22;32931;47.778;17.806;2022-12-24T03:15:56;8.60;99.90
47168;DHT22;32931;47.778;17.806;2022-12-24T03:18:25;8.60;99.90
47168;DHT22;32931;47.778;17.806;2022-12-24T03:23:21;8.60;99.90
47168;DHT22;32931;47.778;17.806;2022-12-24T03:25:48;8.60;99.90
47168;DHT22;32931;47.778;17.806;2022-12-24T03:28:17;8.60;99.90
47168;DHT22;32931;47.778;17.806;2022-12-24T03:30:45;8.70;99.90
47168;DHT22;32931;47.778;17.806;2022-12-24T03:33:12;8.70;99.90
47168;DHT22;32931;47.778;17.806;2022-12-24T03:35:38;8.70;99.90
47168;DHT22;32931;47.778;17.806;2022-12-24T03:38:04;8.70;99.90
47168;DHT22;32931;47.778;17.806;2022-12-24T03:40:31;8.70;99.90
47168;DHT22;32931;47.778;17.806;2022-12-24T03:42:57;8.70;99.90
47168;DHT22;32931;47.778;17.806;2022-12-24T03:45:23;8.70;99.90
47168;DHT22;32931;47.778;17.806;2022-12-24T03:47:50;8.80;99.90
47168;DHT22;32931;47.778;17.806;2022-12-24T03:50:16;8.80;99.90
47168;DHT22;32931;47.778;17.806;2022-12-24T03:52:42;8.80;99.90
47168;DHT22;32931;47.778;17.806;2022-12-24T03:55:08;8.80;99.90
47168;DHT22;32931;47.778;17.806;2022-12-24T03:57:35;8.80;99.90
47168;DHT22;32931;47.778;17.806;2022-12-24T04:00:02;8.90;99.90
47168;DHT22;32931;47.778;17.806;2022-12-24T04:02:29;8.90;99.90
47168;DHT22;32931;47.778;17.806;2022-12-24T04:04:56;8.90;99.90
47168;DHT22;32931;47.778;17.806;2022-12-24T04:07:23;8.90;99.90
47168;DHT22;32931;47.778;17.806;2022-12-24T04:09:49;8.80;99.90
47168;DHT22;32931;47.778;17.806;2022-12-24T04:12:15;8.80;99.90
47168;DHT22;32931;47.778;17.806;2022-12-24T04:14:41;8.80;99.90
47168;DHT22;32931;47.778;17.806;2022-12-24T04:17:07;8.80;99.90
47168;DHT22;32931;47.778;17.806;2022-12-24T04:19:33;8.80;99.90
47168;DHT22;32931;47.778;17.806;2022-12-24T04:22:00;8.80;99.90
47168;DHT22;32931;47.778;17.806;2022-12-24T04:24:26;8.80;99.90
47168;DHT22;32931;47.778;17.806;2022-12-24T04:26:52;8.80;99.90
47168;DHT22;32931;47.778;17.806;2022-12-24T04:29:18;8.80;99.90
47168;DHT22;32931;47.778;17.806;2022-12-24T04:31:44;8.80;99.90
47168;DHT22;32931;47.778;17.806;2022-12-24T04:34:10;8.80;99.90
47168;DHT22;32931;47.778;17.806;2022-12-24T04:36:37;8.80;99.90
47168;DHT22;32931;47.778;17.806;2022-12-24T04:39:03;8.90;99.90
47168;DHT22;32931;47.778;17.806;2022-12-24T04:41:29;8.90;99.90
47168;DHT22;32931;47.778;17.806;2022-12-24T04:43:55;8.90;99.90
47168;DHT22;32931;47.778;17.806;2022-12-24T04:46:24;8.90;99.90
47168;DHT22;32931;47.778;17.806;2022-12-24T04:48:52;8.90;99.90
47168;DHT22;32931;47.778;17.806;2022-12-24T04:51:19;8.90;99.90
47168;DHT22;32931;47.778;17.806;2022-12-24T04:53:46;8.90;99.90
47168;DHT22;32931;47.778;17.806;2022-12-24T04:56:21;8.90;99.90
47168;DHT22;32931;47.778;17.806;2022-12-24T04:58:48;8.80;99.90
47168;DHT22;32931;47.778;17.806;2022-12-24T05:01:20;8.80;99.90
47168;DHT22;32931;47.778;17.806;2022-12-24T05:03:47;8.80;99.90
47168;DHT22;32931;47.778;17.806;2022-12-24T05:06:15;8.80;99.90
47168;DHT22;32931;47.778;17.806;2022-12-24T05:08:42;8.80;99.90
47168;DHT22;32931;47.778;17.806;2022-12-24T05:11:09;8.80;99.90
47168;DHT22;32931;47.778;17.806;2022-12-24T05:13:36;8.80;99.90
47168;DHT22;32931;47.778;17.806;2022-12-24T05:16:03;8.80;99.90
47168;DHT22;32931;47.778;17.806;2022-12-24T05:18:30;8.70;99.90
47168;DHT22;32931;47.778;17.806;2022-12-24T05:20:56;8.70;99.90
47168;DHT22;32931;47.778;17.806;2022-12-24T05:23:23;8.80;99.90
47168;DHT22;32931;47.778;17.806;2022-12-24T05:26:20;8.80;99.90
47168;DHT22;32931;47.778;17.806;2022-12-24T05:28:53;8.80;99.90
47168;DHT22;32931;47.778;17.806;2022-12-24T05:31:20;8.80;99.90
47168;DHT22;32931;47.778;17.806;2022-12-24T05:33:47;8.80;99.90
47168;DHT22;32931;47.778;17.806;2022-12-24T05:36:13;8.80;99.90
47168;DHT22;32931;47.778;17.806;2022-12-24T05:38:40;8.90;99.90
47168;DHT22;32931;47.778;17.806;2022-12-24T05:41:07;8.90;99.90
47168;DHT22;32931;47.778;17.806;2022-12-24T05:43:35;8.90;99.90
47168;DHT22;32931;47.778;17.806;2022-12-24T05:46:04;8.90;99.90
47168;DHT22;32931;47.778;17.806;2022-12-24T05:48:31;8.90;99.90
47168;DHT22;32931;47.778;17.806;2022-12-24T05:50:57;8.90;99.90
47168;DHT22;32931;47.778;17.806;2022-12-24T05:53:23;9.00;99.90
47168;DHT22;32931;47.778;17.806;2022-12-24T05:55:49;8.90;99.90
47168;DHT22;32931;47.778;17.806;2022-12-24T05:58:16;9.00;99.90
47168;DHT22;32931;47.778;17.806;2022-12-24T06:00:42;9.00;99.90
47168;DHT22;32931;47.778;17.806;2022-12-24T06:03:09;9.00;99.90
47168;DHT22;32931;47.778;17.806;2022-12-24T06:05:35;9.00;99.90
47168;DHT22;32931;47.778;17.806;2022-12-24T06:08:02;9.00;99.90
47168;DHT22;32931;47.778;17.806;2022-12-24T06:10:28;9.00;99.90
47168;DHT22;32931;47.778;17.806;2022-12-24T06:12:54;9.00;99.90
47168;DHT22;32931;47.778;17.806;2022-12-24T06:15:20;9.00;99.90
47168;DHT22;32931;47.778;17.806;2022-12-24T06:17:47;9.00;99.90
47168;DHT22;32931;47.778;17.806;2022-12-24T06:20:13;9.00;99.90
47168;DHT22;32931;47.778;17.806;2022-12-24T06:22:39;9.00;99.90
47168;DHT22;32931;47.778;17.806;2022-12-24T06:25:05;9.00;99.90
47168;DHT22;32931;47.778;17.806;2022-12-24T06:27:31;9.00;99.90
47168;DHT22;32931;47.778;17.806;2022-12-24T06:29:57;9.00;99.90
47168;DHT22;32931;47.778;17.806;2022-12-24T06:32:24;9.00;99.90
47168;DHT22;32931;47.778;17.806;2022-12-24T06:34:50;9.00;99.90
47168;DHT22;32931;47.778;17.806;2022-12-24T06:37:16;9.00;99.90
47168;DHT22;32931;47.778;17.806;2022-12-24T06:39:45;9.00;99.90
47168;DHT22;32931;47.778;17.806;2022-12-24T06:42:12;9.00;99.90
47168;DHT22;32931;47.778;17.806;2022-12-24T06:44:38;9.00;99.90
47168;DHT22;32931;47.778;17.806;2022-12-24T06:47:05;9.00;99.90
47168;DHT22;32931;47.778;17.806;2022-12-24T06:49:31;8.90;99.90
47168;DHT22;32931;47.778;17.806;2022-12-24T06:51:57;8.90;99.90
47168;DHT22;32931;47.778;17.806;2022-12-24T06:54:23;9.00;99.90
47168;DHT22;32931;47.778;17.806;2022-12-24T06:56:49;9.00;99.90
47168;DHT22;32931;47.778;17.806;2022-12-24T06:59:15;9.00;99.90
47168;DHT22;32931;47.778;17.806;2022-12-24T07:01:41;9.00;99.90
47168;DHT22;32931;47.778;17.806;2022-12-24T07:04:08;9.00;99.90
47168;DHT22;32931;47.778;17.806;2022-12-24T07:06:34;9.10;99.90
47168;DHT22;32931;47.778;17.806;2022-12-24T07:09:01;9.10;99.90
47168;DHT22;32931;47.778;17.806;2022-12-24T07:11:27;9.10;99.90
47168;DHT22;32931;47.778;17.806;2022-12-24T07:13:53;9.20;99.90
47168;DHT22;32931;47.778;17.806;2022-12-24T07:16:19;9.10;99.90
47168;DHT22;32931;47.778;17.806;2022-12-24T07:18:46;9.20;99.90
47168;DHT22;32931;47.778;17.806;2022-12-24T07:21:12;9.20;99.90
47168;DHT22;32931;47.778;17.806;2022-12-24T07:23:38;9.30;99.90
47168;DHT22;32931;47.778;17.806;2022-12-24T07:26:06;9.30;99.90
47168;DHT22;32931;47.778;17.806;2022-12-24T07:28:32;9.40;99.90
47168;DHT22;32931;47.778;17.806;2022-12-24T07:30:58;9.50;99.90
47168;DHT22;32931;47.778;17.806;2022-12-24T07:33:25;9.60;99.90
47168;DHT22;32931;47.778;17.806;2022-12-24T07:35:59;9.70;99.90
47168;DHT22;32931;47.778;17.806;2022-12-24T07:38:26;9.80;99.90
47168;DHT22;32931;47.778;17.806;2022-12-24T07:40:53;10.00;99.90
47168;DHT22;32931;47.778;17.806;2022-12-24T07:43:19;10.10;99.90
47168;DHT22;32931;47.778;17.806;2022-12-24T07:45:45;10.20;99.90
47168;DHT22;32931;47.778;17.806;2022-12-24T07:48:11;10.30;99.90
47168;DHT22;32931;47.778;17.806;2022-12-24T07:50:37;10.30;99.90
47168;DHT22;32931;47.778;17.806;2022-12-24T07:53:03;10.30;99.90
47168;DHT22;32931;47.778;17.806;2022-12-24T07:55:29;10.40;99.90
47168;DHT22;32931;47.778;17.806;2022-12-24T07:57:56;10.40;99.90
47168;DHT22;32931;47.778;17.806;2022-12-24T08:00:22;10.40;99.90
47168;DHT22;32931;47.778;17.806;2022-12-24T08:02:48;10.50;99.90
47168;DHT22;32931;47.778;17.806;2022-12-24T08:05:14;10.50;99.90
47168;DHT22;32931;47.778;17.806;2022-12-24T08:07:40;10.50;99.90
47168;DHT22;32931;47.778;17.806;2022-12-24T08:10:07;10.50;99.90
47168;DHT22;32931;47.778;17.806;2022-12-24T08:12:33;10.60;99.90
47168;DHT22;32931;47.778;17.806;2022-12-24T08:14:59;10.60;99.90
47168;DHT22;32931;47.778;17.806;2022-12-24T08:17:25;10.60;99.90
47168;DHT22;32931;47.778;17.806;2022-12-24T08:19:51;10.60;99.90
47168;DHT22;32931;47.778;17.806;2022-12-24T08:22:18;10.60;99.90
47168;DHT22;32931;47.778;17.806;2022-12-24T08:24:44;10.60;99.90
47168;DHT22;32931;47.778;17.806;2022-12-24T08:27:10;10.60;99.90
47168;DHT22;32931;47.778;17.806;2022-12-24T08:29:36;10.60;99.90
47168;DHT22;32931;47.778;17.806;2022-12-24T08:32:02;10.60;99.90
47168;DHT22;32931;47.778;17.806;2022-12-24T08:34:28;10.60;99.90
47168;DHT22;32931;47.778;17.806;2022-12-24T08:36:55;10.60;99.90
47168;DHT22;32931;47.778;17.806;2022-12-24T08:39:21;10.60;99.90
47168;DHT22;32931;47.778;17.806;2022-12-24T08:41:47;10.70;99.90
47168;DHT22;32931;47.778;17.806;2022-12-24T08:44:13;10.70;99.90
47168;DHT22;32931;47.778;17.806;2022-12-24T08:46:39;10.70;99.90
47168;DHT22;32931;47.778;17.806;2022-12-24T08:49:05;10.80;99.90
47168;DHT22;32931;47.778;17.806;2022-12-24T08:51:31;10.80;99.90
47168;DHT22;32931;47.778;17.806;2022-12-24T08:53:58;10.90;99.90
47168;DHT22;32931;47.778;17.806;2022-12-24T08:56:24;11.00;99.90
47168;DHT22;32931;47.778;17.806;2022-12-24T08:58:50;11.00;99.90
47168;DHT22;32931;47.778;17.806;2022-12-24T09:01:18;11.10;99.90
47168;DHT22;32931;47.778;17.806;2022-12-24T09:03:45;11.20;99.90
47168;DHT22;32931;47.778;17.806;2022-12-24T09:06:12;11.30;99.90
47168;DHT22;32931;47.778;17.806;2022-12-24T09:08:39;11.40;99.90
47168;DHT22;32931;47.778;17.806;2022-12-24T09:11:16;11.50;99.90
47168;DHT22;32931;47.778;17.806;2022-12-24T09:13:43;11.60;99.90
47168;DHT22;32931;47.778;17.806;2022-12-24T09:16:10;11.70;99.90
47168;DHT22;32931;47.778;17.806;2022-12-24T09:18:36;11.80;99.90
47168;DHT22;32931;47.778;17.806;2022-12-24T09:21:05;11.80;99.90
47168;DHT22;32931;47.778;17.806;2022-12-24T09:23:34;11.90;99.90
47168;DHT22;32931;47.778;17.806;2022-12-24T09:26:05;11.90;99.90
47168;DHT22;32931;47.778;17.806;2022-12-24T09:28:31;11.90;99.90
47168;DHT22;32931;47.778;17.806;2022-12-24T09:31:02;11.90;99.90
47168;DHT22;32931;47.778;17.806;2022-12-24T09:33:30;11.90;99.90
47168;DHT22;32931;47.778;17.806;2022-12-24T09:35:57;11.90;99.90
47168;DHT22;32931;47.778;17.806;2022-12-24T09:38:23;11.90;99.90
47168;DHT22;32931;47.778;17.806;2022-12-24T09:40:50;12.00;99.90
47168;DHT22;32931;47.778;17.806;2022-12-24T09:43:22;12.00;99.90
47168;DHT22;32931;47.778;17.806;2022-12-24T09:48:40;12.10;99.90
47168;DHT22;32931;47.778;17.806;2022-12-24T09:51:09;12.20;99.90
47168;DHT22;32931;47.778;17.806;2022-12-24T09:56:18;12.30;99.90
47168;DHT22;32931;47.778;17.806;2022-12-24T09:58:55;12.40;99.90
47168;DHT22;32931;47.778;17.806;2022-12-24T10:01:23;12.40;99.90
47168;DHT22;32931;47.778;17.806;2022-12-24T10:03:49;12.50;99.90
47168;DHT22;32931;47.778;17.806;2022-12-24T10:06:23;12.60;99.90
47168;DHT22;32931;47.778;17.806;2022-12-24T10:19:47;12.70;99.90
47168;DHT22;32931;47.778;17.806;2022-12-24T10:25:40;12.80;99.90
47168;DHT22;32931;47.778;17.806;2022-12-24T10:28:00;12.80;99.90
47168;DHT22;32931;47.778;17.806;2022-12-24T10:30:27;12.80;99.90
47168;DHT22;32931;47.778;17.806;2022-12-24T10:32:54;12.80;99.90
47168;DHT22;32931;47.778;17.806;2022-12-24T10:35:28;12.80;99.90
47168;DHT22;32931;47.778;17.806;2022-12-24T10:37:57;12.80;99.90
47168;DHT22;32931;47.778;17.806;2022-12-24T10:40:40;12.80;99.90
47168;DHT22;32931;47.778;17.806;2022-12-24T10:43:22;12.90;99.90
47168;DHT22;32931;47.778;17.806;2022-12-24T10:46:02;12.90;99.90
47168;DHT22;32931;47.778;17.806;2022-12-24T10:48:40;12.90;99.90
47168;DHT22;32931;47.778;17.806;2022-12-24T10:51:36;12.80;99.90
47168;DHT22;32931;47.778;17.806;2022-12-24T10:54:17;12.80;99.90
47168;DHT22;32931;47.778;17.806;2022-12-24T10:56:48;12.80;99.90
47168;DHT22;32931;47.778;17.806;2022-12-24T11:02:00;12.80;99.90
47168;DHT22;32931;47.778;17.806;2022-12-24T11:04:28;12.80;99.90
47168;DHT22;32931;47.778;17.806;2022-12-24T11:09:34;12.80;99.90
47168;DHT22;32931;47.778;17.806;2022-12-24T11:12:03;12.80;99.90
47168;DHT22;32931;47.778;17.806;2022-12-24T11:14:36;12.80;99.90
47168;DHT22;32931;47.778;17.806;2022-12-24T11:17:03;12.70;99.90
47168;DHT22;32931;47.778;17.806;2022-12-24T11:19:32;12.70;99.90
47168;DHT22;32931;47.778;17.806;2022-12-24T11:22:04;12.60;99.90
47168;DHT22;32931;47.778;17.806;2022-12-24T11:24:33;12.60;99.90
47168;DHT22;32931;47.778;17.806;2022-12-24T11:27:29;12.60;99.90
47168;DHT22;32931;47.778;17.806;2022-12-24T11:32:46;12.70;99.90
47168;DHT22;32931;47.778;17.806;2022-12-24T11:35:21;12.70;99.90
47168;DHT22;32931;47.778;17.806;2022-12-24T11:37:49;12.80;99.90
47168;DHT22;32931;47.778;17.806;2022-12-24T11:40:42;12.80;99.90
47168;DHT22;32931;47.778;17.806;2022-12-24T11:43:19;12.70;99.90
47168;DHT22;32931;47.778;17.806;2022-12-24T11:45:50;12.70;99.90
47168;DHT22;32931;47.778;17.806;2022-12-24T11:48:29;12.70;99.90
47168;DHT22;32931;47.778;17.806;2022-12-24T11:56:45;12.90;99.90
47168;DHT22;32931;47.778;17.806;2022-12-24T11:59:36;13.00;99.90
47168;DHT22;32931;47.778;17.806;2022-12-24T12:02:26;13.10;99.90
47168;DHT22;32931;47.778;17.806;2022-12-24T12:04:59;13.10;99.90
47168;DHT22;32931;47.778;17.806;2022-12-24T12:07:30;13.20;99.90
47168;DHT22;32931;47.778;17.806;2022-12-24T12:10:02;13.20;99.90
47168;DHT22;32931;47.778;17.806;2022-12-24T12:12:36;13.20;99.90
47168;DHT22;32931;47.778;17.806;2022-12-24T12:17:50;13.10;99.90
47168;DHT22;32931;47.778;17.806;2022-12-24T12:20:25;13.10;99.90
47168;DHT22;32931;47.778;17.806;2022-12-24T12:25:43;13.00;99.90
47168;DHT22;32931;47.778;17.806;2022-12-24T12:28:25;12.90;99.90
47168;DHT22;32931;47.778;17.806;2022-12-24T12:33:56;13.00;99.90
47168;DHT22;32931;47.778;17.806;2022-12-24T12:36:36;13.00;99.90
47168;DHT22;32931;47.778;17.806;2022-12-24T12:39:05;13.00;99.90
47168;DHT22;32931;47.778;17.806;2022-12-24T12:50:16;13.20;99.90
47168;DHT22;32931;47.778;17.806;2022-12-24T12:55:53;13.20;99.90
47168;DHT22;32931;47.778;17.806;2022-12-24T12:58:37;13.30;99.90
47168;DHT22;32931;47.778;17.806;2022-12-24T13:01:26;13.30;99.90
47168;DHT22;32931;47.778;17.806;2022-12-24T13:15:18;13.30;99.90
47168;DHT22;32931;47.778;17.806;2022-12-24T13:20:45;13.20;99.90
47168;DHT22;32931;47.778;17.806;2022-12-24T13:23:19;13.20;99.90
47168;DHT22;32931;47.778;17.806;2022-12-24T13:25:48;13.20;99.90
47168;DHT22;32931;47.778;17.806;2022-12-24T13:30:51;13.20;99.90
47168;DHT22;32931;47.778;17.806;2022-12-24T13:33:45;13.20;99.90
47168;DHT22;32931;47.778;17.806;2022-12-24T13:36:14;13.20;99.90
47168;DHT22;32931;47.778;17.806;2022-12-24T13:38:53;13.10;99.90
47168;DHT22;32931;47.778;17.806;2022-12-24T13:46:59;13.00;99.90
47168;DHT22;32931;47.778;17.806;2022-12-24T14:02:34;12.90;99.90
47168;DHT22;32931;47.778;17.806;2022-12-24T14:05:05;12.90;99.90
47168;DHT22;32931;47.778;17.806;2022-12-24T14:07:34;12.80;99.90
47168;DHT22;32931;47.778;17.806;2022-12-24T14:10:01;12.80;99.90
47168;DHT22;32931;47.778;17.806;2022-12-24T14:12:45;12.80;99.90
47168;DHT22;32931;47.778;17.806;2022-12-24T14:15:43;12.80;99.90
47168;DHT22;32931;47.778;17.806;2022-12-24T14:18:15;12.70;99.90
47168;DHT22;32931;47.778;17.806;2022-12-24T14:20:42;12.70;99.90
47168;DHT22;32931;47.778;17.806;2022-12-24T14:26:00;12.70;99.90
47168;DHT22;32931;47.778;17.806;2022-12-24T14:28:36;12.70;99.90
47168;DHT22;32931;47.778;17.806;2022-12-24T14:31:11;12.70;99.90
47168;DHT22;32931;47.778;17.806;2022-12-24T14:33:38;12.60;99.90
47168;DHT22;32931;47.778;17.806;2022-12-24T14:36:05;12.60;99.90
47168;DHT22;32931;47.778;17.806;2022-12-24T14:38:32;12.60;99.90
47168;DHT22;32931;47.778;17.806;2022-12-24T14:59:55;12.50;99.90
47168;DHT22;32931;47.778;17.806;2022-12-24T15:02:44;12.50;99.90
47168;DHT22;32931;47.778;17.806;2022-12-24T15:05:17;12.50;99.90
47168;DHT22;32931;47.778;17.806;2022-12-24T15:07:45;12.40;99.90
47168;DHT22;32931;47.778;17.806;2022-12-24T15:13:03;12.30;99.90
47168;DHT22;32931;47.778;17.806;2022-12-24T15:15:31;12.30;99.90
47168;DHT22;32931;47.778;17.806;2022-12-24T15:17:57;12.20;99.90
47168;DHT22;32931;47.778;17.806;2022-12-24T15:20:27;12.20;99.90
47168;DHT22;32931;47.778;17.806;2022-12-24T15:22:56;12.20;99.90
47168;DHT22;32931;47.778;17.806;2022-12-24T15:25:30;12.20;99.90
47168;DHT22;32931;47.778;17.806;2022-12-24T15:27:57;12.10;99.90
47168;DHT22;32931;47.778;17.806;2022-12-24T15:30:26;12.10;99.90
47168;DHT22;32931;47.778;17.806;2022-12-24T15:32:55;12.00;99.90
47168;DHT22;32931;47.778;17.806;2022-12-24T15:35:34;12.00;99.90
47168;DHT22;32931;47.778;17.806;2022-12-24T15:38:30;12.00;99.90
47168;DHT22;32931;47.778;17.806;2022-12-24T15:40:57;12.00;99.90
47168;DHT22;32931;47.778;17.806;2022-12-24T15:43:24;11.90;99.90
47168;DHT22;32931;47.778;17.806;2022-12-24T15:45:51;11.90;99.90
47168;DHT22;32931;47.778;17.806;2022-12-24T15:48:23;11.90;99.90
47168;DHT22;32931;47.778;17.806;2022-12-24T15:50:55;11.80;99.90
47168;DHT22;32931;47.778;17.806;2022-12-24T15:53:36;11.80;99.90
47168;DHT22;32931;47.778;17.806;2022-12-24T15:56:13;11.80;99.90
47168;DHT22;32931;47.778;17.806;2022-12-24T16:01:46;11.80;99.90
47168;DHT22;32931;47.778;17.806;2022-12-24T16:04:15;11.70;99.90
47168;DHT22;32931;47.778;17.806;2022-12-24T16:06:58;11.70;99.90
47168;DHT22;32931;47.778;17.806;2022-12-24T16:09:42;11.70;99.90
47168;DHT22;32931;47.778;17.806;2022-12-24T16:12:21;11.70;99.90
47168;DHT22;32931;47.778;17.806;2022-12-24T16:14:56;11.70;99.90
47168;DHT22;32931;47.778;17.806;2022-12-24T16:17:26;11.70;99.90
47168;DHT22;32931;47.778;17.806;2022-12-24T16:19:55;11.70;99.90
47168;DHT22;32931;47.778;17.806;2022-12-24T16:22:23;11.70;99.90
47168;DHT22;32931;47.778;17.806;2022-12-24T16:25:24;11.70;99.90
47168;DHT22;32931;47.778;17.806;2022-12-24T16:27:51;11.70;99.90
47168;DHT22;32931;47.778;17.806;2022-12-24T16:30:19;11.60;99.90
47168;DHT22;32931;47.778;17.806;2022-12-24T16:32:46;11.60;99.90
47168;DHT22;32931;47.778;17.806;2022-12-24T16:35:25;11.50;99.90
47168;DHT22;32931;47.778;17.806;2022-12-24T16:37:53;11.40;99.90
47168;DHT22;32931;47.778;17.806;2022-12-24T16:40:20;11.40;99.90
47168;DHT22;32931;47.778;17.806;2022-12-24T16:42:46;11.40;99.90
47168;DHT22;32931;47.778;17.806;2022-12-24T16:45:34;11.40;99.90
47168;DHT22;32931;47.778;17.806;2022-12-24T16:48:01;11.30;99.90
47168;DHT22;32931;47.778;17.806;2022-12-24T16:50:27;11.30;99.90
47168;DHT22;32931;47.778;17.806;2022-12-24T16:52:54;11.30;99.90
47168;DHT22;32931;47.778;17.806;2022-12-24T16:55:20;11.40;99.90
47168;DHT22;32931;47.778;17.806;2022-12-24T16:57:46;11.40;99.90
47168;DHT22;32931;47.778;17.806;2022-12-24T17:00:18;11.40;99.90
47168;DHT22;32931;47.778;17.806;2022-12-24T17:02:46;11.40;99.90
47168;DHT22;32931;47.778;17.806;2022-12-24T17:05:12;11.50;99.90
47168;DHT22;32931;47.778;17.806;2022-12-24T17:07:38;11.50;99.90
47168;DHT22;32931;47.778;17.806;2022-12-24T17:10:07;11.40;99.90
47168;DHT22;32931;47.778;17.806;2022-12-24T17:12:34;11.50;99.90
47168;DHT22;32931;47.778;17.806;2022-12-24T17:15:00;11.50;99.90
47168;DHT22;32931;47.778;17.806;2022-12-24T17:17:28;11.50;99.90
47168;DHT22;32931;47.778;17.806;2022-12-24T17:19:55;11.60;99.90
47168;DHT22;32931;47.778;17.806;2022-12-24T17:22:22;11.60;99.90
47168;DHT22;32931;47.778;17.806;2022-12-24T17:24:48;11.60;99.90
47168;DHT22;32931;47.778;17.806;2022-12-24T17:27:15;11.60;99.90
47168;DHT22;32931;47.778;17.806;2022-12-24T17:29:41;11.50;99.90
47168;DHT22;32931;47.778;17.806;2022-12-24T17:32:07;11.50;99.90
47168;DHT22;32931;47.778;17.806;2022-12-24T17:34:33;11.50;99.90
47168;DHT22;32931;47.778;17.806;2022-12-24T17:37:00;11.50;99.90
47168;DHT22;32931;47.778;17.806;2022-12-24T17:39:26;11.50;99.90
47168;DHT22;32931;47.778;17.806;2022-12-24T17:41:52;11.50;99.90
47168;DHT22;32931;47.778;17.806;2022-12-24T17:44:18;11.50;99.90
47168;DHT22;32931;47.778;17.806;2022-12-24T17:46:44;11.50;99.90
47168;DHT22;32931;47.778;17.806;2022-12-24T17:49:12;11.50;99.90
47168;DHT22;32931;47.778;17.806;2022-12-24T17:51:38;11.40;99.90
47168;DHT22;32931;47.778;17.806;2022-12-24T17:54:04;11.40;99.90
47168;DHT22;32931;47.778;17.806;2022-12-24T17:56:30;11.40;99.90
47168;DHT22;32931;47.778;17.806;2022-12-24T17:58:56;11.40;99.90
47168;DHT22;32931;47.778;17.806;2022-12-24T18:01:24;11.40;99.90
47168;DHT22;32931;47.778;17.806;2022-12-24T18:03:51;11.40;99.90
47168;DHT22;32931;47.778;17.806;2022-12-24T18:06:19;11.40;99.90
47168;DHT22;32931;47.778;17.806;2022-12-24T18:08:46;11.40;99.90